Portada
METAR-TAF:

METAR-TAF

Aeroports :

Muscatine, Iowa, Estats Units d'Amèrica

latitud: 41-22N, longitud: 091-09W, altitud: 167 m

Observació

L'informe es va fer fa 5 minuts, a les 18:15 UTC
Vent 14 kt del Oest/Sud-Oest
Temperatura 32°C
Humitat 49%
Pressió 1012 hPa
Visibilitat: 16.1 km
Cel clar

METAR: KMUT 021815Z AUTO 24014KT 10SM CLR 32/20 A2989 RMK AO2

Hora: 13:20 (18:20 UTC)


TAF: manca

Observacions i pronòstics meteorològics de més de 4000 aeroports (METAR i TAF).

Les estacions disponibles són els punts grocs i vermells al mapa.

Posi el ratolí al punt desitjat per veure el nom de l'estació.

Feu clic per veure les observacions i els pronòstics meteorològics.

Per canviar el mapa: feu clic els botons verds amb una creu de color negre per apropar; al botó verd amb un guió per allunyar la imatge; o en les fletxes verdes per a mapes adjacents.


METAR-TAF: